Time;durP1;ratioP1;P1;durP2;ratioP2;P2;SDS_P1;SDS_P2;PMS_P1;PMS_P2;Temp;Humidity;BMP_temperature;BMP_pressure;BME280_temperature;BME280_humidity;BME280_pressure;Samples;Min_cycle;Max_cycle;Signal;HPM_P1;HPM_P2
2024/01/03 00:01:28;;;;;;;18.35;3.50;;;10.80;87.90;;;;;;5053674;28;20029;-37
2024/01/03 00:03:55;;;;;;;21.70;3.40;;;10.80;87.70;;;;;;5053502;28;20025;-37
2024/01/03 00:06:21;;;;;;;17.17;3.38;;;10.90;86.90;;;;;;5053645;28;20024;-33
2024/01/03 00:08:46;;;;;;;14.02;2.80;;;10.90;87.20;;;;;;5052073;28;20461;-41
2024/01/03 00:11:19;;;;;;;17.35;3.78;;;10.90;86.90;;;;;;5053684;28;20024;-36
2024/01/03 00:13:50;;;;;;;16.52;4.25;;;11.00;86.90;;;;;;5053279;28;20048;-37
2024/01/03 00:16:23;;;;;;;28.85;9.23;;;10.90;87.10;;;;;;5053373;28;20025;-35
2024/01/03 00:18:49;;;;;;;36.92;11.25;;;10.90;87.10;;;;;;5052968;28;20052;-36
2024/01/03 00:21:24;;;;;;;28.80;9.75;;;10.90;87.10;;;;;;5053043;28;20377;-32
2024/01/03 00:23:56;;;;;;;28.65;8.65;;;10.90;86.70;;;;;;5051442;28;20111;-37
2024/01/03 00:26:23;;;;;;;24.35;6.95;;;10.90;86.90;;;;;;5052885;28;20029;-32
2024/01/03 00:28:48;;;;;;;22.88;6.65;;;11.00;86.60;;;;;;5052665;28;20630;-34
2024/01/03 00:31:23;;;;;;;20.90;5.07;;;11.00;85.60;;;;;;5051719;28;20028;-37
2024/01/03 00:33:52;;;;;;;21.13;5.10;;;11.00;85.80;;;;;;5052621;28;20140;-33
2024/01/03 00:36:20;;;;;;;27.60;9.52;;;11.00;85.40;;;;;;5051803;28;20032;-32
2024/01/03 00:38:46;;;;;;;33.53;9.77;;;11.00;85.50;;;;;;5052462;28;20033;-33
2024/01/03 00:41:12;;;;;;;26.75;8.50;;;11.10;85.20;;;;;;5052514;28;20025;-36
2024/01/03 00:43:41;;;;;;;27.77;7.10;;;11.10;85.20;;;;;;5052433;28;20394;-32
2024/01/03 00:46:10;;;;;;;18.55;5.40;;;11.10;84.90;;;;;;5052437;28;20028;-31
2024/01/03 00:48:36;;;;;;;19.80;4.32;;;11.10;84.80;;;;;;5050988;28;20029;-33
2024/01/03 00:51:03;;;;;;;19.83;5.72;;;11.10;84.80;;;;;;5052724;28;20108;-35
2024/01/03 00:53:29;;;;;;;17.83;3.90;;;11.10;84.40;;;;;;5052806;28;20025;-32
2024/01/03 00:55:55;;;;;;;16.33;2.92;;;11.10;84.50;;;;;;5052753;28;20476;-32
2024/01/03 00:58:21;;;;;;;21.10;3.50;;;11.10;83.90;;;;;;5052592;28;20036;-33
2024/01/03 01:00:48;;;;;;;18.27;3.30;;;11.10;84.00;;;;;;5052617;28;20060;-33
2024/01/03 01:03:14;;;;;;;15.90;3.63;;;11.10;84.20;;;;;;5052580;28;20433;-33
2024/01/03 01:05:40;;;;;;;17.02;3.17;;;11.10;84.00;;;;;;5052571;28;20095;-36
2024/01/03 01:08:06;;;;;;;16.33;3.83;;;11.10;83.70;;;;;;5052412;28;20023;-34
2024/01/03 01:10:31;;;;;;;18.48;3.22;;;11.10;83.70;;;;;;5052512;28;20466;-33
2024/01/03 01:12:57;;;;;;;20.30;2.83;;;11.20;83.50;;;;;;5052502;28;20473;-32
2024/01/03 01:15:23;;;;;;;11.32;2.72;;;11.10;83.60;;;;;;5052579;28;20367;-33
2024/01/03 01:17:48;;;;;;;19.35;3.80;;;11.10;83.80;;;;;;5051113;28;20028;-34
2024/01/03 01:20:14;;;;;;;15.68;3.45;;;11.10;83.80;;;;;;5052647;28;20096;-33
2024/01/03 01:22:40;;;;;;;18.00;3.45;;;11.10;84.20;;;;;;5052527;28;20025;-32
2024/01/03 01:25:06;;;;;;;17.73;4.07;;;11.00;84.60;;;;;;5052114;28;20025;-32
2024/01/03 01:27:31;;;;;;;16.92;3.97;;;11.00;84.70;;;;;;5052170;28;20028;-34
2024/01/03 01:29:57;;;;;;;18.90;4.15;;;11.00;85.00;;;;;;5052448;28;20017;-32
2024/01/03 01:32:22;;;;;;;20.38;4.05;;;11.00;85.10;;;;;;5052268;28;20408;-33
2024/01/03 01:34:48;;;;;;;18.10;3.63;;;11.00;85.00;;;;;;5052101;28;20521;-33
2024/01/03 01:37:14;;;;;;;20.52;4.10;;;11.00;85.10;;;;;;5052387;28;20601;-36
2024/01/03 01:39:40;;;;;;;16.58;3.80;;;11.00;84.70;;;;;;5052199;28;20365;-35
2024/01/03 01:42:06;;;;;;;23.05;4.18;;;11.00;84.70;;;;;;5052058;28;20025;-34
2024/01/03 01:44:31;;;;;;;26.23;4.20;;;11.10;84.80;;;;;;5052469;28;20029;-38
2024/01/03 01:46:58;;;;;;;22.20;4.05;;;11.10;84.60;;;;;;5052049;28;20362;-33
2024/01/03 01:49:26;;;;;;;21.48;4.47;;;11.10;84.60;;;;;;5058136;28;20020;-32
2024/01/03 01:51:52;;;;;;;21.23;3.47;;;11.10;85.00;;;;;;5058744;28;20469;-34
2024/01/03 01:54:19;;;;;;;23.60;4.13;;;11.10;85.20;;;;;;5057611;28;20039;-32
2024/01/03 01:56:47;;;;;;;22.45;4.55;;;11.10;85.10;;;;;;5058583;28;20059;-33
2024/01/03 01:59:14;;;;;;;23.05;4.13;;;11.10;84.90;;;;;;5058890;28;20028;-33
2024/01/03 02:01:41;;;;;;;21.35;3.78;;;11.10;84.90;;;;;;5058520;28;20044;-32
2024/01/03 02:04:08;;;;;;;23.52;4.55;;;11.10;85.00;;;;;;5058667;28;20021;-31
2024/01/03 02:06:35;;;;;;;22.52;4.68;;;11.20;85.10;;;;;;5058651;28;20426;-32
2024/01/03 02:09:00;;;;;;;23.20;4.38;;;11.10;84.70;;;;;;5058701;28;20099;-35
2024/01/03 02:11:26;;;;;;;18.02;3.80;;;11.10;84.80;;;;;;5058482;28;20427;-35
2024/01/03 02:13:52;;;;;;;19.00;3.72;;;11.20;84.80;;;;;;5058430;28;20032;-35
2024/01/03 02:16:17;;;;;;;22.00;3.80;;;11.10;84.50;;;;;;5058854;28;20025;-32
2024/01/03 02:18:44;;;;;;;23.45;4.55;;;11.20;84.60;;;;;;5058597;28;20650;-34
2024/01/03 02:21:13;;;;;;;21.45;4.47;;;11.10;84.40;;;;;;5057177;28;20477;-35
2024/01/03 02:23:39;;;;;;;25.10;4.45;;;11.10;84.10;;;;;;5058454;28;20029;-33
2024/01/03 02:26:04;;;;;;;18.23;3.40;;;11.20;83.80;;;;;;5057086;28;20028;-37
2024/01/03 02:28:30;;;;;;;15.25;3.53;;;11.20;83.70;;;;;;5058299;28;20029;-39
2024/01/03 02:30:55;;;;;;;21.25;4.35;;;11.20;84.00;;;;;;5057062;28;20432;-34
2024/01/03 02:33:21;;;;;;;19.08;4.45;;;11.20;84.10;;;;;;5058455;28;20110;-36
2024/01/03 02:35:47;;;;;;;28.23;4.60;;;11.20;84.00;;;;;;5058271;28;20499;-32
2024/01/03 02:38:12;;;;;;;26.20;4.18;;;11.20;83.80;;;;;;5058348;28;20021;-33
2024/01/03 02:40:38;;;;;;;25.92;4.00;;;11.20;84.10;;;;;;5058391;28;20021;-33
2024/01/03 02:43:03;;;;;;;23.90;4.78;;;11.20;83.30;;;;;;5058231;28;20032;-32
2024/01/03 02:45:29;;;;;;;21.52;4.07;;;11.20;83.60;;;;;;5056915;28;20021;-32
2024/01/03 02:47:55;;;;;;;23.00;4.00;;;11.20;83.70;;;;;;5058202;28;20033;-35
2024/01/03 02:50:20;;;;;;;19.25;4.15;;;11.20;83.80;;;;;;5058288;28;20488;-33
2024/01/03 02:52:46;;;;;;;19.83;3.92;;;11.20;84.10;;;;;;5056731;28;20017;-32
2024/01/03 02:55:11;;;;;;;24.02;4.20;;;11.20;84.30;;;;;;5058348;28;20029;-36
2024/01/03 02:57:37;;;;;;;20.33;4.15;;;11.20;84.70;;;;;;5058127;28;20060;-33
2024/01/03 03:00:03;;;;;;;20.95;3.78;;;11.20;85.00;;;;;;5055281;28;20024;-34
2024/01/03 03:02:29;;;;;;;20.63;4.32;;;11.10;85.10;;;;;;5053574;28;20025;-36
2024/01/03 03:04:54;;;;;;;23.98;3.83;;;11.10;85.20;;;;;;5054757;28;20055;-34
2024/01/03 03:07:20;;;;;;;24.38;4.70;;;11.10;85.20;;;;;;5054966;28;20361;-39
2024/01/03 03:09:45;;;;;;;19.10;4.43;;;11.20;85.20;;;;;;5054771;28;20109;-36
2024/01/03 03:12:11;;;;;;;24.30;4.13;;;11.10;85.40;;;;;;5054903;28;20021;-39
2024/01/03 03:14:37;;;;;;;22.30;5.45;;;11.10;85.60;;;;;;5054729;28;20030;-36
2024/01/03 03:17:02;;;;;;;20.05;4.57;;;11.10;85.30;;;;;;5054671;28;20031;-37
2024/01/03 03:19:29;;;;;;;25.42;4.90;;;11.10;85.30;;;;;;5054626;28;20037;-39
2024/01/03 03:21:54;;;;;;;16.75;3.80;;;11.10;85.40;;;;;;5054478;28;20500;-35
2024/01/03 03:24:20;;;;;;;18.98;4.38;;;11.20;85.20;;;;;;5054562;28;20048;-32
2024/01/03 03:26:48;;;;;;;21.08;3.80;;;11.10;85.40;;;;;;5054345;28;20029;-34
2024/01/03 03:29:14;;;;;;;20.92;4.25;;;11.20;85.50;;;;;;5054196;28;20009;-39
2024/01/03 03:31:39;;;;;;;20.48;4.05;;;11.20;85.50;;;;;;5054468;28;20483;-32
2024/01/03 03:34:05;;;;;;;24.05;4.18;;;11.10;85.70;;;;;;5054215;28;20409;-36
2024/01/03 03:36:30;;;;;;;26.42;4.53;;;11.10;85.90;;;;;;5054422;28;20032;-32
2024/01/03 03:38:56;;;;;;;25.98;4.22;;;11.10;86.30;;;;;;5054196;28;20022;-31
2024/01/03 03:41:23;;;;;;;20.17;3.80;;;11.10;86.60;;;;;;5054307;28;20028;-35
2024/01/03 03:43:48;;;;;;;28.17;4.63;;;11.10;86.80;;;;;;5054305;28;20214;-32
2024/01/03 03:46:16;;;;;;;24.23;4.93;;;11.10;87.10;;;;;;5054095;28;20100;-32
2024/01/03 03:48:42;;;;;;;21.90;5.10;;;11.10;87.30;;;;;;5054020;28;20086;-35
2024/01/03 03:51:08;;;;;;;30.60;5.28;;;11.00;87.30;;;;;;5054114;28;20018;-31
2024/01/03 03:53:33;;;;;;;21.35;4.53;;;11.00;87.10;;;;;;5054062;28;20024;-36
2024/01/03 03:55:59;;;;;;;25.17;4.65;;;11.00;87.10;;;;;;5052734;28;20117;-37
2024/01/03 03:58:24;;;;;;;27.40;4.82;;;11.10;87.10;;;;;;5053825;28;20492;-37
2024/01/03 04:00:50;;;;;;;24.00;4.03;;;11.10;86.90;;;;;;5054006;28;20376;-35
2024/01/03 04:03:15;;;;;;;21.27;4.40;;;11.10;87.20;;;;;;5053718;28;20025;-34
2024/01/03 04:05:41;;;;;;;26.60;4.43;;;11.00;87.50;;;;;;5053921;28;20013;-33
2024/01/03 04:08:06;;;;;;;24.60;4.97;;;11.00;87.80;;;;;;5053732;28;20021;-34
2024/01/03 04:10:32;;;;;;;19.60;3.80;;;11.10;87.90;;;;;;5053490;28;20493;-37
2024/01/03 04:12:58;;;;;;;21.40;3.53;;;11.00;87.80;;;;;;5054009;28;20028;-32
2024/01/03 04:15:24;;;;;;;20.08;4.78;;;11.00;87.80;;;;;;5053588;28;20023;-36
2024/01/03 04:17:52;;;;;;;22.77;3.92;;;11.00;87.70;;;;;;5053705;28;20100;-32
2024/01/03 04:20:19;;;;;;;22.20;4.22;;;11.00;87.70;;;;;;5053568;28;20064;-33
2024/01/03 04:22:45;;;;;;;23.27;4.63;;;11.00;87.80;;;;;;5053309;28;20029;-32
2024/01/03 04:25:11;;;;;;;26.58;5.07;;;11.00;87.70;;;;;;5053421;28;20072;-35
2024/01/03 04:27:37;;;;;;;22.48;4.47;;;11.00;87.60;;;;;;5053413;28;20075;-32
2024/01/03 04:30:04;;;;;;;22.02;4.45;;;10.90;87.70;;;;;;5053225;28;20025;-34
2024/01/03 04:32:30;;;;;;;23.55;4.57;;;11.00;87.80;;;;;;5053248;28;20500;-33
2024/01/03 04:34:56;;;;;;;24.70;4.30;;;11.00;87.90;;;;;;5053157;28;20025;-35
2024/01/03 04:37:21;;;;;;;31.63;5.53;;;11.00;87.80;;;;;;5053254;28;20032;-34
2024/01/03 04:39:47;;;;;;;23.02;4.85;;;11.00;87.80;;;;;;5053072;28;20029;-32
2024/01/03 04:42:13;;;;;;;26.20;4.97;;;11.00;87.90;;;;;;5053081;28;20025;-34
2024/01/03 04:44:40;;;;;;;21.85;4.30;;;11.00;87.70;;;;;;5053076;28;20052;-33
2024/01/03 04:47:06;;;;;;;31.92;4.70;;;11.10;87.90;;;;;;5053019;28;20025;-33
2024/01/03 04:49:31;;;;;;;26.45;4.65;;;11.00;87.90;;;;;;5052990;28;20032;-33
2024/01/03 04:51:57;;;;;;;25.77;3.63;;;11.10;88.00;;;;;;5052893;28;20416;-34
2024/01/03 04:54:22;;;;;;;23.85;4.95;;;11.10;88.10;;;;;;5053216;28;20065;-35
2024/01/03 04:56:48;;;;;;;22.23;4.80;;;11.10;88.20;;;;;;5052617;28;20025;-33
2024/01/03 04:59:14;;;;;;;27.23;5.78;;;11.10;88.10;;;;;;5052593;28;20393;-35
2024/01/03 05:01:41;;;;;;;29.48;6.38;;;11.10;88.00;;;;;;5052571;28;20029;-35
2024/01/03 05:04:07;;;;;;;26.40;6.43;;;11.10;87.30;;;;;;5052605;28;20035;-32
2024/01/03 05:06:33;;;;;;;20.80;5.35;;;11.10;87.30;;;;;;5052596;28;20108;-34
2024/01/03 05:08:58;;;;;;;22.50;5.72;;;11.10;87.30;;;;;;5052694;28;20076;-35
2024/01/03 05:11:24;;;;;;;24.83;5.68;;;11.10;87.20;;;;;;5052488;28;20021;-34
2024/01/03 05:13:49;;;;;;;23.77;4.72;;;11.00;87.00;;;;;;5052629;28;20060;-36
2024/01/03 05:16:15;;;;;;;18.77;5.10;;;11.10;87.20;;;;;;5052500;28;20021;-34
2024/01/03 05:18:41;;;;;;;19.58;4.85;;;11.00;87.90;;;;;;5052450;28;20025;-38
2024/01/03 05:21:06;;;;;;;29.63;6.28;;;11.00;87.40;;;;;;5052386;28;20365;-32
2024/01/03 05:23:32;;;;;;;18.92;5.15;;;11.00;87.50;;;;;;5051667;28;20035;-34
2024/01/03 05:25:57;;;;;;;20.23;5.22;;;11.00;87.60;;;;;;5052251;28;20048;-35
2024/01/03 05:28:23;;;;;;;18.95;5.05;;;11.00;87.70;;;;;;5050672;28;20028;-33
2024/01/03 05:30:49;;;;;;;19.45;4.80;;;10.90;87.90;;;;;;5052316;28;20025;-36
2024/01/03 05:33:15;;;;;;;16.52;3.85;;;10.90;88.20;;;;;;5052271;28;20044;-34
2024/01/03 05:35:40;;;;;;;16.85;4.10;;;10.90;88.40;;;;;;5052386;28;20779;-35
2024/01/03 05:38:06;;;;;;;14.63;4.05;;;10.80;88.60;;;;;;5052194;28;20027;-35
2024/01/03 05:40:32;;;;;;;17.50;3.67;;;10.90;89.00;;;;;;5050778;28;20025;-33
2024/01/03 05:42:58;;;;;;;18.40;3.95;;;10.80;89.10;;;;;;5052442;28;20429;-35
2024/01/03 05:45:23;;;;;;;15.55;3.95;;;10.80;89.60;;;;;;5052341;28;20060;-33
2024/01/03 05:47:49;;;;;;;14.18;3.58;;;10.80;90.00;;;;;;5052215;28;20017;-31
2024/01/03 05:50:15;;;;;;;18.05;4.20;;;10.80;90.10;;;;;;5052437;28;20469;-33
2024/01/03 05:52:40;;;;;;;18.48;3.28;;;10.70;90.40;;;;;;5052268;28;20017;-34
2024/01/03 05:55:06;;;;;;;14.80;3.20;;;10.70;90.50;;;;;;5052024;28;20025;-34
2024/01/03 05:57:32;;;;;;;10.73;3.20;;;10.60;90.60;;;;;;5051852;28;20037;-34
2024/01/03 05:59:58;;;;;;;16.42;3.42;;;10.60;90.80;;;;;;5052223;28;20036;-32
2024/01/03 06:02:23;;;;;;;14.93;3.55;;;10.60;90.90;;;;;;5051943;28;20492;-32
2024/01/03 06:04:49;;;;;;;15.40;3.20;;;10.60;91.00;;;;;;5051932;28;20028;-32
2024/01/03 06:07:15;;;;;;;13.80;2.97;;;10.60;91.10;;;;;;5052201;28;20079;-31
2024/01/03 06:09:40;;;;;;;11.43;2.70;;;10.60;91.10;;;;;;5051880;28;20020;-32
2024/01/03 06:12:06;;;;;;;12.85;2.88;;;10.60;91.10;;;;;;5051923;28;20025;-37
2024/01/03 06:14:32;;;;;;;12.10;2.67;;;10.60;91.10;;;;;;5051907;28;20029;-33
2024/01/03 06:16:57;;;;;;;11.02;2.78;;;10.60;91.20;;;;;;5051746;28;20021;-32
2024/01/03 06:19:23;;;;;;;9.15;2.60;;;10.60;91.20;;;;;;5051839;28;20038;-31
2024/01/03 06:21:48;;;;;;;12.60;2.78;;;10.60;91.10;;;;;;5051739;28;20025;-31
2024/01/03 06:24:14;;;;;;;12.50;3.08;;;10.60;91.10;;;;;;5051656;28;20032;-37
2024/01/03 06:26:40;;;;;;;11.32;2.30;;;10.60;91.00;;;;;;5051641;28;20476;-33
2024/01/03 06:29:05;;;;;;;7.07;2.67;;;10.60;91.00;;;;;;5051539;28;20458;-35
2024/01/03 06:31:31;;;;;;;12.68;2.33;;;10.60;91.00;;;;;;5051809;28;20032;-31
2024/01/03 06:33:56;;;;;;;9.50;2.08;;;10.60;91.00;;;;;;5051561;28;20513;-35
2024/01/03 06:36:22;;;;;;;7.93;2.38;;;10.60;90.90;;;;;;5054876;28;20036;-31
2024/01/03 06:38:48;;;;;;;8.70;2.25;;;10.70;90.90;;;;;;5055351;28;20104;-31
2024/01/03 06:41:14;;;;;;;11.80;2.58;;;10.60;90.80;;;;;;5055332;28;20033;-31
2024/01/03 06:43:39;;;;;;;8.57;1.75;;;10.60;90.80;;;;;;5055198;28;20036;-34
2024/01/03 06:46:05;;;;;;;9.13;1.92;;;10.70;90.80;;;;;;5055326;28;20100;-36
2024/01/03 06:48:31;;;;;;;8.45;1.88;;;10.70;90.80;;;;;;5055239;28;20048;-31
2024/01/03 06:50:56;;;;;;;9.82;2.72;;;10.60;90.80;;;;;;5055298;28;20021;-36
2024/01/03 06:53:22;;;;;;;7.55;2.17;;;10.60;90.80;;;;;;5055254;28;20032;-35
2024/01/03 06:55:47;;;;;;;5.90;1.67;;;10.70;90.80;;;;;;5055202;28;20408;-31
2024/01/03 06:58:13;;;;;;;6.45;1.60;;;10.70;90.80;;;;;;5054993;28;20378;-35
2024/01/03 07:00:39;;;;;;;6.82;1.92;;;10.70;90.80;;;;;;5055037;28;20021;-33
2024/01/03 07:03:05;;;;;;;5.45;1.80;;;10.60;90.70;;;;;;5055131;28;20108;-34
2024/01/03 07:05:31;;;;;;;5.20;1.63;;;10.60;90.50;;;;;;5053579;28;20108;-33
2024/01/03 07:07:58;;;;;;;4.15;1.45;;;10.60;90.60;;;;;;5054796;28;20216;-37
2024/01/03 07:10:31;;;;;;;6.13;1.67;;;10.60;90.60;;;;;;5054853;28;20021;-35
2024/01/03 07:12:58;;;;;;;4.47;1.30;;;10.60;90.60;;;;;;5055060;28;20014;-31
2024/01/03 07:15:25;;;;;;;3.90;1.20;;;10.60;90.60;;;;;;5053322;28;20021;-34
2024/01/03 07:17:50;;;;;;;2.90;1.27;;;10.60;90.80;;;;;;5054648;28;20029;-33
2024/01/03 07:20:16;;;;;;;5.85;1.20;;;10.60;90.50;;;;;;5054626;28;20051;-34
2024/01/03 07:22:41;;;;;;;3.90;0.93;;;10.60;90.40;;;;;;5054643;28;20143;-35
2024/01/03 07:25:07;;;;;;;4.03;1.10;;;10.50;90.30;;;;;;5054455;28;20500;-33
2024/01/03 07:27:33;;;;;;;3.70;0.93;;;10.50;90.40;;;;;;5054584;28;20064;-34
2024/01/03 07:29:58;;;;;;;4.85;1.13;;;10.50;90.50;;;;;;5054388;28;20025;-33
2024/01/03 07:32:24;;;;;;;3.25;1.02;;;10.40;90.50;;;;;;5054349;28;20481;-35
2024/01/03 07:34:50;;;;;;;3.20;0.90;;;10.30;90.60;;;;;;5054197;28;20057;-31
2024/01/03 07:37:16;;;;;;;1.65;0.80;;;10.30;90.80;;;;;;5054614;28;20343;-32
2024/01/03 07:39:42;;;;;;;2.75;0.65;;;10.20;90.90;;;;;;5054010;28;20031;-33
2024/01/03 07:42:09;;;;;;;4.32;1.10;;;10.10;91.00;;;;;;5054203;28;20033;-31
2024/01/03 07:44:41;;;;;;;4.45;0.90;;;10.10;91.10;;;;;;5054022;28;20115;-33
2024/01/03 07:47:07;;;;;;;3.63;0.80;;;10.00;91.10;;;;;;5053144;28;20095;-31
2024/01/03 07:49:32;;;;;;;1.42;0.57;;;10.00;91.10;;;;;;5053771;28;20037;-32
2024/01/03 07:51:58;;;;;;;3.47;1.13;;;10.00;91.10;;;;;;5054119;28;20048;-34
2024/01/03 07:54:23;;;;;;;1.48;0.43;;;10.00;91.00;;;;;;5054040;28;20047;-32
2024/01/03 07:56:49;;;;;;;2.05;0.88;;;9.90;91.00;;;;;;5053953;28;20032;-35
2024/01/03 07:59:14;;;;;;;3.30;0.70;;;9.90;91.10;;;;;;5053942;28;20120;-38
2024/01/03 08:01:40;;;;;;;2.35;0.82;;;9.90;91.00;;;;;;5053946;28;20438;-33
2024/01/03 08:04:06;;;;;;;2.58;0.70;;;9.90;91.00;;;;;;5053889;28;20412;-36
2024/01/03 08:06:31;;;;;;;2.30;0.65;;;9.90;91.00;;;;;;5053909;28;20043;-35
2024/01/03 08:08:57;;;;;;;2.90;0.75;;;9.90;91.00;;;;;;5053783;28;20382;-36
2024/01/03 08:11:22;;;;;;;1.83;0.57;;;9.90;90.90;;;;;;5053725;28;20405;-33
2024/01/03 08:13:48;;;;;;;2.80;0.60;;;9.90;90.90;;;;;;5053652;28;20032;-35
2024/01/03 08:16:15;;;;;;;3.15;0.60;;;9.90;90.90;;;;;;5053160;28;20051;-34
2024/01/03 08:18:40;;;;;;;2.83;0.60;;;9.90;90.90;;;;;;5053414;28;20104;-33
2024/01/03 08:21:06;;;;;;;2.53;0.50;;;9.90;90.90;;;;;;5053989;28;20417;-35
2024/01/03 08:23:31;;;;;;;3.22;1.08;;;9.90;90.90;;;;;;5053439;28;20063;-33
2024/01/03 08:25:59;;;;;;;1.65;0.65;;;9.90;90.90;;;;;;5053778;28;20021;-34
2024/01/03 08:28:24;;;;;;;5.57;1.27;;;9.90;90.90;;;;;;5053426;28;20019;-33
2024/01/03 08:30:51;;;;;;;5.85;1.27;;;9.90;90.90;;;;;;5053538;28;20088;-35
2024/01/03 08:33:17;;;;;;;4.07;1.02;;;9.90;91.00;;;;;;5053257;28;20041;-37
2024/01/03 08:35:43;;;;;;;5.85;1.30;;;9.90;91.00;;;;;;5053387;28;20078;-33
2024/01/03 08:38:09;;;;;;;3.75;1.17;;;9.90;91.10;;;;;;5051777;28;20029;-31
2024/01/03 08:40:34;;;;;;;3.42;1.10;;;9.90;91.20;;;;;;5053627;28;20068;-36
2024/01/03 08:43:00;;;;;;;4.90;1.40;;;9.90;91.30;;;;;;5053135;28;20378;-31
2024/01/03 08:45:26;;;;;;;3.67;1.30;;;9.90;91.30;;;;;;5053227;28;20029;-33
2024/01/03 08:47:51;;;;;;;5.22;2.00;;;9.90;91.40;;;;;;5053259;28;20032;-36
2024/01/03 08:50:17;;;;;;;5.40;1.35;;;9.90;91.50;;;;;;5052886;28;20025;-38
2024/01/03 08:52:43;;;;;;;7.90;2.13;;;9.90;91.50;;;;;;5053356;28;20070;-35
2024/01/03 08:55:08;;;;;;;6.35;2.00;;;9.90;91.70;;;;;;5053205;28;20036;-36
2024/01/03 08:57:34;;;;;;;6.85;2.22;;;10.00;91.80;;;;;;5052231;28;20371;-38
2024/01/03 09:00:00;;;;;;;7.82;2.13;;;10.00;91.90;;;;;;5052662;28;20021;-34
2024/01/03 09:02:25;;;;;;;7.55;2.00;;;10.00;92.00;;;;;;5052628;28;20029;-37
2024/01/03 09:04:53;;;;;;;5.93;2.08;;;10.00;92.00;;;;;;5052707;28;20109;-34
2024/01/03 09:07:21;;;;;;;4.65;1.92;;;10.00;92.10;;;;;;5052934;28;20028;-39
2024/01/03 09:09:47;;;;;;;5.20;1.80;;;10.00;92.10;;;;;;5052506;28;20021;-34
2024/01/03 09:12:12;;;;;;;7.63;2.10;;;10.00;92.10;;;;;;5052514;28;20021;-37
2024/01/03 09:14:40;;;;;;;4.75;2.13;;;10.00;92.20;;;;;;5051328;28;20028;-38
2024/01/03 09:17:06;;;;;;;8.15;2.10;;;10.10;92.30;;;;;;5052591;28;20031;-40
2024/01/03 09:19:32;;;;;;;7.40;2.42;;;10.00;92.30;;;;;;5052610;28;20115;-39
2024/01/03 09:21:59;;;;;;;5.45;2.10;;;10.10;92.40;;;;;;5052449;28;20063;-41
2024/01/03 09:24:27;;;;;;;6.85;2.30;;;10.10;92.50;;;;;;5051067;28;20025;-39
2024/01/03 09:26:52;;;;;;;7.97;2.90;;;10.10;92.50;;;;;;5052483;28;20388;-40
2024/01/03 09:29:19;;;;;;;6.90;2.55;;;10.10;92.50;;;;;;5052266;28;20017;-36
2024/01/03 09:31:47;;;;;;;10.15;3.45;;;10.10;92.60;;;;;;5052597;28;20029;-42
2024/01/03 09:34:13;;;;;;;7.78;2.67;;;10.10;92.60;;;;;;5052292;28;20427;-39
2024/01/03 09:36:41;;;;;;;9.55;2.80;;;10.20;92.70;;;;;;5052544;28;20033;-39
2024/01/03 09:39:08;;;;;;;8.13;2.90;;;10.20;92.70;;;;;;5052079;28;20102;-39
2024/01/03 09:41:35;;;;;;;5.68;2.05;;;10.20;92.70;;;;;;5050695;28;20087;-40
2024/01/03 09:44:01;;;;;;;10.25;2.95;;;10.20;92.70;;;;;;5050543;28;20021;-35
2024/01/03 09:46:27;;;;;;;8.52;2.50;;;10.20;92.70;;;;;;5052371;28;20389;-40
2024/01/03 09:48:52;;;;;;;6.95;2.40;;;10.20;92.80;;;;;;5052137;28;20017;-40
2024/01/03 09:51:21;;;;;;;7.68;2.50;;;10.20;92.80;;;;;;5052047;28;20021;-35
2024/01/03 09:53:54;;;;;;;10.77;2.92;;;10.20;92.80;;;;;;5052018;28;20025;-36
2024/01/03 09:56:20;;;;;;;7.72;2.53;;;10.20;92.90;;;;;;5052094;28;20023;-37
2024/01/03 09:58:49;;;;;;;10.55;2.55;;;10.20;92.90;;;;;;5051994;28;20385;-37
2024/01/03 10:01:15;;;;;;;11.75;2.50;;;10.30;93.00;;;;;;5051801;28;20492;-38
2024/01/03 10:03:40;;;;;;;9.80;2.30;;;10.30;93.00;;;;;;5051843;28;20029;-39
2024/01/03 10:06:09;;;;;;;6.75;2.00;;;10.30;93.00;;;;;;5050612;28;20082;-38
2024/01/03 10:08:35;;;;;;;13.55;2.60;;;10.30;93.00;;;;;;5052437;28;20025;-35
2024/01/03 10:11:01;;;;;;;11.63;3.17;;;10.30;93.10;;;;;;5056122;28;20416;-31
2024/01/03 10:13:30;;;;;;;13.95;2.80;;;10.30;93.10;;;;;;5055605;28;20074;-39
2024/01/03 10:16:04;;;;;;;9.13;2.47;;;10.20;93.10;;;;;;5055960;28;20530;-34
2024/01/03 10:18:29;;;;;;;11.93;3.00;;;10.20;93.10;;;;;;5055462;28;20025;-32
2024/01/03 10:21:11;;;;;;;15.35;3.20;;;10.30;93.20;;;;;;5055623;28;20147;-37
2024/01/03 10:23:36;;;;;;;22.55;4.10;;;10.20;93.20;;;;;;5055457;28;20481;-36
2024/01/03 10:26:02;;;;;;;15.73;3.40;;;10.30;93.20;;;;;;5055518;28;20025;-33
2024/01/03 10:28:28;;;;;;;14.57;2.92;;;10.30;93.20;;;;;;5054168;28;20024;-32
2024/01/03 10:30:53;;;;;;;17.30;3.67;;;10.20;93.20;;;;;;5055336;28;20060;-47
2024/01/03 10:33:20;;;;;;;11.13;2.95;;;10.30;93.20;;;;;;5054500;28;20425;-46
2024/01/03 10:35:46;;;;;;;19.20;3.17;;;10.30;93.30;;;;;;5054933;28;20028;-37
2024/01/03 10:38:13;;;;;;;17.05;3.78;;;10.30;93.30;;;;;;5053774;28;20029;-37
2024/01/03 10:40:43;;;;;;;12.00;3.00;;;10.30;93.20;;;;;;5054953;28;20100;-41
2024/01/03 10:43:09;;;;;;;16.52;3.53;;;10.40;93.10;;;;;;5055000;28;20434;-38
2024/01/03 10:45:34;;;;;;;18.90;3.67;;;10.40;93.00;;;;;;5054994;28;20049;-39
2024/01/03 10:48:00;;;;;;;18.70;3.13;;;10.50;92.90;;;;;;5054634;28;20025;-36
2024/01/03 10:50:26;;;;;;;18.80;3.70;;;10.60;92.80;;;;;;5054831;28;20075;-35
2024/01/03 10:52:59;;;;;;;14.32;2.88;;;10.70;92.50;;;;;;5055159;28;20111;-39
2024/01/03 10:55:37;;;;;;;13.63;3.63;;;10.80;92.40;;;;;;5054984;28;20410;-38
2024/01/03 10:58:20;;;;;;;13.60;3.75;;;10.90;92.30;;;;;;5054724;28;20075;-37
2024/01/03 11:01:00;;;;;;;17.77;3.63;;;10.90;92.10;;;;;;5054502;28;20036;-37
2024/01/03 11:03:45;;;;;;;15.68;3.58;;;10.90;92.20;;;;;;5054557;28;20113;-35
2024/01/03 11:06:28;;;;;;;9.07;2.90;;;11.00;92.00;;;;;;5054612;28;20025;-34
2024/01/03 11:08:58;;;;;;;17.08;3.95;;;11.00;92.00;;;;;;5054659;28;20730;-35
2024/01/03 11:11:34;;;;;;;18.08;3.85;;;11.00;91.90;;;;;;5054662;28;20664;-34
2024/01/03 11:14:01;;;;;;;18.20;3.47;;;10.90;91.80;;;;;;5054812;28;20032;-37
2024/01/03 11:16:39;;;;;;;14.73;3.30;;;10.90;92.00;;;;;;5036243;28;20045;-34
2024/01/03 11:19:07;;;;;;;16.15;3.30;;;10.80;92.00;;;;;;5054170;28;20024;-36
2024/01/03 11:21:35;;;;;;;17.98;3.92;;;10.80;92.00;;;;;;5053293;28;20029;-34
2024/01/03 11:24:01;;;;;;;18.05;3.78;;;10.80;91.90;;;;;;5054297;28;20424;-35
2024/01/03 11:26:53;;;;;;;16.05;3.10;;;10.80;92.00;;;;;;5053982;28;20021;-38
2024/01/03 11:29:46;;;;;;;14.45;3.55;;;10.80;92.00;;;;;;5051188;28;20083;-34
2024/01/03 11:32:24;;;;;;;13.93;3.40;;;11.00;92.00;;;;;;5053972;28;20036;-39
2024/01/03 11:34:53;;;;;;;21.77;4.25;;;11.00;91.80;;;;;;5052289;28;20056;-33
2024/01/03 11:37:18;;;;;;;28.00;4.25;;;11.00;91.70;;;;;;5053977;28;20033;-31
2024/01/03 11:39:46;;;;;;;21.13;4.47;;;11.00;91.30;;;;;;5054437;28;20142;-33
2024/01/03 11:42:22;;;;;;;18.45;3.78;;;11.00;91.30;;;;;;5054402;28;20021;-31
2024/01/03 11:45:08;;;;;;;21.02;4.47;;;11.00;91.20;;;;;;5053971;28;20033;-32
2024/01/03 11:47:40;;;;;;;18.85;3.95;;;11.00;90.70;;;;;;5053660;28;20025;-33
2024/01/03 11:50:08;;;;;;;15.38;3.30;;;11.00;90.70;;;;;;5054381;28;20017;-31
2024/01/03 11:52:37;;;;;;;27.58;4.45;;;11.00;90.80;;;;;;5054154;28;20021;-33
2024/01/03 11:55:06;;;;;;;24.15;4.50;;;11.00;90.70;;;;;;5053097;28;20021;-32
2024/01/03 11:57:35;;;;;;;20.83;3.65;;;11.00;90.60;;;;;;5053823;28;20517;-32
2024/01/03 12:00:01;;;;;;;27.63;4.75;;;11.10;90.60;;;;;;5053686;28;20029;-31
2024/01/03 12:02:27;;;;;;;23.38;4.57;;;11.10;90.50;;;;;;5053533;28;20017;-32
2024/01/03 12:05:04;;;;;;;25.88;5.38;;;11.10;90.30;;;;;;5053880;28;20104;-32
2024/01/03 12:07:37;;;;;;;25.23;5.03;;;11.10;90.40;;;;;;5053772;28;20113;-30
2024/01/03 12:10:07;;;;;;;26.75;4.30;;;11.10;90.60;;;;;;5052442;28;20021;-33
2024/01/03 12:12:33;;;;;;;23.98;4.25;;;11.20;90.40;;;;;;5053740;28;20075;-31
2024/01/03 12:14:59;;;;;;;26.38;4.88;;;11.20;90.40;;;;;;5053606;28;20032;-34
2024/01/03 12:17:29;;;;;;;27.50;4.95;;;11.20;90.50;;;;;;5053592;28;20029;-33
2024/01/03 12:20:09;;;;;;;18.65;4.35;;;11.20;90.50;;;;;;5053530;28;20032;-31
2024/01/03 12:22:35;;;;;;;16.85;4.18;;;11.20;90.70;;;;;;5053655;28;20032;-34
2024/01/03 12:25:01;;;;;;;23.27;4.97;;;11.30;90.70;;;;;;5053230;28;20053;-33
2024/01/03 12:27:27;;;;;;;18.35;4.88;;;11.40;90.70;;;;;;5053150;28;20021;-34
2024/01/03 12:30:18;;;;;;;20.77;4.30;;;11.40;90.50;;;;;;5052001;28;20020;-35
2024/01/03 12:32:47;;;;;;;22.15;4.57;;;11.40;90.40;;;;;;5053030;28;20017;-35
2024/01/03 12:35:13;;;;;;;19.35;4.53;;;11.40;90.30;;;;;;5053354;28;20029;-32
2024/01/03 12:37:46;;;;;;;17.48;4.05;;;11.30;90.30;;;;;;5053270;28;20029;-33
2024/01/03 12:40:16;;;;;;;13.18;3.15;;;11.30;90.50;;;;;;5053587;28;20036;-32